Time;durP1;ratioP1;P1;durP2;ratioP2;P2;SDS_P1;SDS_P2;PMS_P1;PMS_P2;Temp;Humidity;BMP_temperature;BMP_pressure;BME280_temperature;BME280_humidity;BME280_pressure;Samples;Min_cycle;Max_cycle;Signal;HPM_P1;HPM_P2
2022/01/12 00:02:05;;;;;;;;;58.25;46.25;;;;;6.52;58.64;103255.13;4998092;28;45877;-90
2022/01/12 00:04:30;;;;;;;;;57.50;46.00;;;;;6.76;58.85;103309.31;4998400;28;45400;-91
2022/01/12 00:06:56;;;;;;;;;50.50;43.25;;;;;6.06;58.89;103177.69;5001549;28;46052;-91
2022/01/12 00:09:22;;;;;;;;;57.25;42.50;;;;;6.17;58.71;103206.06;5034292;28;45250;-90
2022/01/12 00:11:47;;;;;;;;;59.00;45.00;;;;;5.66;59.14;103128.53;5017919;28;45310;-91
2022/01/12 00:14:13;;;;;;;;;58.25;45.25;;;;;5.98;59.25;103194.34;5018068;28;45265;-90
2022/01/12 00:16:40;;;;;;;;;54.25;42.75;;;;;6.23;59.64;103237.94;5034288;28;47307;-91
2022/01/12 00:19:05;;;;;;;;;54.25;44.50;;;;;6.09;59.53;103220.09;5017716;28;45250;-91
2022/01/12 00:21:31;;;;;;;;;57.50;45.00;;;;;6.61;58.64;103294.13;5034347;28;45167;-91
2022/01/12 00:23:56;;;;;;;;;61.75;45.00;;;;;5.74;59.08;103157.78;5034663;28;45472;-91
2022/01/12 00:26:39;;;;;;;;;57.00;44.50;;;;;5.68;59.53;103151.50;5017239;28;47166;-90
2022/01/12 00:34:32;;;;;;;;;56.00;42.25;;;;;6.36;59.63;103262.84;5018844;28;45221;-91
2022/01/12 00:36:57;;;;;;;;;58.25;45.25;;;;;6.43;59.61;103280.59;5017039;28;47010;-91
2022/01/12 00:39:24;;;;;;;;;55.50;43.50;;;;;6.48;59.70;103302.75;5017337;28;45282;-91
2022/01/12 00:41:50;;;;;;;;;57.50;44.25;;;;;5.96;59.66;103212.81;5017310;28;45332;-91
2022/01/12 00:44:32;;;;;;;;;60.00;47.50;;;;;5.92;59.74;103226.84;5017539;28;45376;-91
2022/01/12 00:46:58;;;;;;;;;60.75;47.00;;;;;6.72;59.17;103361.41;5018663;28;46252;-91
2022/01/12 00:49:24;;;;;;;;;57.50;47.25;;;;;6.12;59.81;103265.13;5017290;28;45348;-91
2022/01/12 00:51:54;;;;;;;;;54.25;44.25;;;;;6.10;59.74;103273.94;5017079;28;45238;-92
2022/01/12 00:54:20;;;;;;;;;54.75;41.50;;;;;6.05;59.83;103271.22;5017467;28;45627;-91
2022/01/12 00:56:45;;;;;;;;;65.25;49.00;;;;;6.01;59.98;103271.13;5016855;28;47380;-92
2022/01/12 00:59:11;;;;;;;;;55.75;45.00;;;;;6.75;59.74;103398.56;5017177;28;45387;-91
2022/01/12 01:01:36;;;;;;;;;56.25;44.00;;;;;6.11;60.02;103289.84;5016194;28;45284;-91
2022/01/12 01:04:02;;;;;;;;;55.75;44.50;;;;;6.73;59.73;103394.97;5017401;28;45424;-91
2022/01/12 01:06:27;;;;;;;;;58.75;47.50;;;;;5.89;59.57;103264.75;5016996;28;48070;-90
2022/01/12 01:08:53;;;;;;;;;55.75;44.50;;;;;6.73;59.94;103402.94;5017113;28;45346;-91
2022/01/12 01:11:19;;;;;;;;;54.00;42.25;;;;;6.42;59.81;103345.94;5016921;28;45259;-91
2022/01/12 01:13:56;;;;;;;;;60.50;47.50;;;;;6.21;59.79;103311.19;5033684;28;45571;-91
2022/01/12 01:16:29;;;;;;;;;55.00;45.50;;;;;6.13;59.75;103306.66;5016614;28;47986;-91
2022/01/12 01:27:24;;;;;;;;;59.00;47.00;;;;;6.25;59.77;103356.28;4976308;28;45682;-91
2022/01/12 01:29:49;;;;;;;;;62.00;47.75;;;;;6.17;59.91;103344.66;4959910;28;45657;-91
2022/01/12 01:32:15;;;;;;;;;58.75;46.00;;;;;6.21;59.59;103364.16;4960187;28;45461;-91
2022/01/12 01:34:46;;;;;;;;;55.25;43.75;;;;;6.02;59.85;103333.81;4960178;28;45501;-91
2022/01/12 01:37:12;;;;;;;;;60.25;47.00;;;;;6.53;59.66;103418.53;4959937;28;47101;-91
2022/01/12 01:39:38;;;;;;;;;61.75;47.25;;;;;6.64;59.82;103436.34;4959907;28;45525;-91
2022/01/12 01:42:13;;;;;;;;;57.50;46.50;;;;;6.14;59.97;103360.50;4960019;28;45484;-91
2022/01/12 01:55:18;;;;;;;;;61.50;49.00;;;;;6.22;59.97;103387.97;4981748;28;45495;-91
2022/01/12 01:57:44;;;;;;;;;59.50;48.00;;;;;5.92;60.09;103332.72;4996254;28;47255;-92
2022/01/12 02:00:13;;;;;;;;;56.50;45.75;;;;;5.77;60.11;103320.13;4996432;28;45708;-93
2022/01/12 02:02:39;;;;;;;;;58.25;45.50;;;;;6.04;60.08;103378.00;4996788;28;45417;-92
2022/01/12 02:05:05;;;;;;;;;57.25;45.25;;;;;5.96;60.22;103357.53;4996656;28;45192;-93
2022/01/12 02:07:33;;;;;;;;;55.00;45.25;;;;;5.85;60.07;103355.56;4996686;28;47309;-92
2022/01/12 02:09:58;;;;;;;;;60.50;47.00;;;;;5.83;60.11;103365.22;4996369;28;45420;-93
2022/01/12 02:12:28;;;;;;;;;57.50;45.50;;;;;6.31;60.48;103459.66;4996798;28;45467;-92
2022/01/12 02:14:55;;;;;;;;;58.75;46.75;;;;;5.98;60.54;103414.94;4999722;28;45405;-92
2022/01/12 02:17:25;;;;;;;;;59.75;45.50;;;;;5.63;60.57;103346.31;4999649;28;48103;-92
2022/01/12 02:36:23;;;;;;;;;61.00;47.25;;;;;6.13;60.47;103394.03;5000887;28;45230;-92
2022/01/12 02:41:33;;;;;;;;;55.00;43.25;;;;;5.48;60.66;103283.44;5000574;28;45243;-92
2022/01/12 02:54:46;;;;;;;;;64.50;48.75;;;;;5.60;60.86;103280.13;5000888;28;45365;-93
2022/01/12 02:57:12;;;;;;;;;59.50;44.00;;;;;6.16;60.86;103386.97;4999458;28;45687;-93
2022/01/12 02:59:45;;;;;;;;;61.50;46.00;;;;;5.40;61.22;103273.56;4999297;28;47158;-93
2022/01/12 03:04:48;;;;;;;;;62.75;49.00;;;;;5.73;61.22;103328.84;5000544;28;45270;-93
2022/01/12 03:07:16;;;;;;;;;59.25;46.25;;;;;5.61;60.45;103304.81;5000592;28;45364;-93
2022/01/12 03:09:42;;;;;;;;;69.25;51.00;;;;;6.25;61.26;103426.88;5000219;28;45572;-93
2022/01/12 03:12:07;;;;;;;;;59.25;44.75;;;;;5.60;60.76;103326.88;4999127;28;45960;-92
2022/01/12 03:14:32;;;;;;;;;65.25;48.25;;;;;5.53;61.16;103309.97;4999171;28;45414;-93
2022/01/12 03:16:58;;;;;;;;;53.25;43.25;;;;;6.02;60.94;103392.94;4999089;28;45473;-93
2022/01/12 03:19:23;;;;;;;;;58.25;45.25;;;;;5.96;60.75;103384.00;5000108;28;45308;-93
2022/01/12 03:21:49;;;;;;;;;56.25;44.25;;;;;5.96;60.94;103386.66;4998955;28;45374;-92
2022/01/12 03:24:14;;;;;;;;;57.50;44.00;;;;;5.15;60.56;103245.78;5012839;28;45431;-93
2022/01/12 03:26:39;;;;;;;;;61.00;47.00;;;;;5.94;60.92;103378.66;5019052;28;45361;-93
2022/01/12 03:29:05;;;;;;;;;57.25;43.75;;;;;5.63;60.87;103317.22;5035309;28;47433;-93
2022/01/12 03:31:34;;;;;;;;;61.75;47.25;;;;;6.22;60.78;103421.53;5018709;28;45615;-93
2022/01/12 03:34:22;;;;;;;;;58.00;45.75;;;;;6.22;60.71;103416.22;5018706;28;45392;-92
2022/01/12 03:37:17;;;;;;;;;58.75;46.25;;;;;5.55;61.30;103310.91;5020005;28;45534;-93
2022/01/12 03:39:40;;;;;;;;;62.00;48.75;;;;;5.87;60.99;103358.22;5019452;28;45945;-93
2022/01/12 03:42:05;;;;;;;;;59.00;45.00;;;;;5.66;60.76;103322.56;5018178;28;45238;-92
2022/01/12 03:44:30;;;;;;;;;59.25;45.00;;;;;5.49;60.77;103293.16;5018523;28;45218;-93
2022/01/12 03:46:56;;;;;;;;;55.75;44.50;;;;;5.77;60.91;103343.03;5035507;28;45298;-93
2022/01/12 03:49:21;;;;;;;;;58.75;43.25;;;;;5.95;60.93;103379.53;5018272;28;46860;-92
2022/01/12 03:51:48;;;;;;;;;63.25;48.00;;;;;6.20;61.38;103442.66;5018930;28;45764;-93
2022/01/12 03:54:13;;;;;;;;;58.50;43.75;;;;;5.35;61.08;103304.34;5020239;28;45310;-93
2022/01/12 03:56:39;;;;;;;;;55.75;45.25;;;;;5.91;61.25;103416.53;5019780;28;45365;-93
2022/01/12 03:59:05;;;;;;;;;57.50;46.25;;;;;6.17;61.60;103454.97;5018160;28;46969;-93
2022/01/12 04:01:31;;;;;;;;;51.25;40.75;;;;;4.69;61.63;103206.13;5018055;28;45507;-93
2022/01/12 04:04:00;;;;;;;;;61.25;45.75;;;;;4.82;61.38;103229.31;5018276;28;45393;-93
2022/01/12 04:09:11;;;;;;;;;59.50;46.50;;;;;5.33;61.33;103324.56;5018668;28;45486;-93
2022/01/12 04:11:36;;;;;;;;;58.75;45.00;;;;;5.43;61.16;103347.69;5017740;28;45295;-93
2022/01/12 04:14:03;;;;;;;;;46.00;39.25;;;;;5.77;61.23;103423.31;5018093;28;45389;-93
2022/01/12 04:16:28;;;;;;;;;57.50;44.00;;;;;5.79;61.07;103429.53;5018104;28;45666;-93
2022/01/12 04:18:53;;;;;;;;;62.50;46.25;;;;;5.86;61.22;103452.59;5017770;28;47068;-92
2022/01/12 04:21:26;;;;;;;;;59.25;44.50;;;;;5.21;61.44;103335.78;5034518;28;45396;-92
2022/01/12 04:23:51;;;;;;;;;61.25;47.50;;;;;5.84;61.08;103461.38;5017982;28;45272;-93
2022/01/12 04:26:16;;;;;;;;;62.75;46.75;;;;;6.00;61.44;103500.56;5034257;28;45606;-93
2022/01/12 04:28:44;;;;;;;;;56.25;44.25;;;;;5.73;61.25;103453.22;5017744;28;47080;-93
2022/01/12 04:31:10;;;;;;;;;57.25;44.75;;;;;5.57;61.56;103417.66;5034317;28;45436;-93
2022/01/12 04:33:37;;;;;;;;;59.50;46.25;;;;;5.81;61.75;103462.22;5017432;28;45381;-93
2022/01/12 04:36:05;;;;;;;;;55.75;44.25;;;;;6.11;61.74;103516.63;5033422;28;45310;-93
2022/01/12 04:38:33;;;;;;;;;61.25;46.75;;;;;5.67;61.53;103443.41;5017444;28;48154;-93
2022/01/12 04:41:01;;;;;;;;;63.25;47.25;;;;;5.14;61.14;103355.91;5017353;28;45835;-93
2022/01/12 04:43:27;;;;;;;;;58.00;44.75;;;;;5.96;61.22;103503.13;5017082;28;45446;-93
2022/01/12 04:50:46;;;;;;;;;58.50;44.50;;;;;6.02;61.17;103508.53;5018607;28;45250;-93
2022/01/12 04:53:13;;;;;;;;;58.50;44.75;;;;;5.79;61.76;103478.94;5017581;28;45276;-93
2022/01/12 04:55:38;;;;;;;;;54.00;40.25;;;;;5.35;61.16;103403.06;5019032;28;45354;-93
2022/01/12 04:58:06;;;;;;;;;56.25;43.75;;;;;5.61;61.49;103452.97;5018286;28;45715;-93
2022/01/12 05:00:32;;;;;;;;;55.00;43.75;;;;;5.70;61.45;103467.28;5017088;28;45436;-93
2022/01/12 05:14:15;;;;;;;;;56.25;45.50;;;;;5.96;61.38;103533.13;5018386;28;45252;-93
2022/01/12 05:16:41;;;;;;;;;57.75;43.50;;;;;5.72;61.43;103497.31;5018530;28;45420;-93
2022/01/12 05:19:06;;;;;;;;;54.00;41.75;;;;;5.43;61.40;103438.53;5016890;28;47311;-92
2022/01/12 05:21:31;;;;;;;;;51.00;42.75;;;;;5.41;61.45;103434.06;5016614;28;45408;-92
2022/01/12 05:24:01;;;;;;;;;52.50;45.00;;;;;5.31;61.31;103418.84;5016884;28;45465;-92
2022/01/12 05:26:26;;;;;;;;;55.00;45.00;;;;;5.86;62.01;103507.31;5017317;28;45554;-93
2022/01/12 05:28:51;;;;;;;;;56.75;42.50;;;;;5.15;62.06;103391.16;5018269;28;45272;-93
2022/01/12 05:31:17;;;;;;;;;52.75;43.25;;;;;5.85;61.65;103511.72;5017052;28;45315;-93
2022/01/12 05:33:47;;;;;;;;;56.50;43.75;;;;;5.27;61.73;103412.59;5017003;28;45431;-93
2022/01/12 05:36:12;;;;;;;;;54.25;45.00;;;;;4.72;61.55;103334.75;5017475;28;45409;-92
2022/01/12 05:38:38;;;;;;;;;56.00;44.75;;;;;5.02;62.00;103382.97;5016591;28;47268;-93
2022/01/12 05:41:05;;;;;;;;;55.25;43.25;;;;;5.27;61.90;103423.19;5016892;28;45336;-93
2022/01/12 05:43:32;;;;;;;;;53.25;41.50;;;;;5.24;62.06;103431.94;5016834;28;45346;-93
2022/01/12 05:46:09;;;;;;;;;55.50;42.75;;;;;5.00;61.52;103373.25;5016840;28;45279;-93
2022/01/12 05:51:19;;;;;;;;;45.75;37.75;;;;;4.97;61.64;103359.97;5021496;28;45436;-93
2022/01/12 05:53:45;;;;;;;;;60.00;44.00;;;;;5.03;61.90;103374.22;5020180;28;45307;-93
2022/01/12 05:56:10;;;;;;;;;56.75;44.50;;;;;5.59;61.82;103475.84;5020685;28;45325;-93
2022/01/12 05:58:35;;;;;;;;;53.75;41.00;;;;;5.21;61.86;103409.81;5019980;28;47020;-93
2022/01/12 06:01:01;;;;;;;;;53.00;43.50;;;;;5.85;61.93;103524.03;5019775;28;46155;-93
2022/01/12 06:03:26;;;;;;;;;53.25;43.50;;;;;5.29;61.61;103434.66;5020296;28;45558;-93
2022/01/12 06:05:52;;;;;;;;;53.50;43.25;;;;;5.44;62.06;103464.09;5021712;28;45348;-93
2022/01/12 06:08:18;;;;;;;;;55.00;43.00;;;;;4.88;61.61;103372.97;5019850;28;47019;-92
2022/01/12 06:10:43;;;;;;;;;51.50;41.00;;;;;4.72;61.65;103345.31;5019854;28;45381;-93
2022/01/12 06:13:08;;;;;;;;;54.75;43.00;;;;;4.87;61.94;103356.25;5020058;28;45314;-93
2022/01/12 06:15:34;;;;;;;;;53.00;41.00;;;;;5.27;61.98;103425.81;5020187;28;45535;-93
2022/01/12 06:17:59;;;;;;;;;57.00;41.00;;;;;4.89;61.81;103356.25;5019696;28;47362;-93
2022/01/12 06:20:25;;;;;;;;;53.00;42.25;;;;;5.13;61.95;103383.22;5019717;28;45353;-93
2022/01/12 06:22:50;;;;;;;;;56.25;45.50;;;;;5.32;61.58;103413.59;5019660;28;45506;-93
2022/01/12 06:25:16;;;;;;;;;62.75;43.75;;;;;5.63;61.58;103456.56;5020251;28;45369;-93
2022/01/12 06:33:20;;;;;;;;;55.25;44.75;;;;;5.75;61.50;103490.31;5020792;28;45241;-92
2022/01/12 06:35:45;;;;;;;;;58.25;46.00;;;;;5.57;61.58;103461.69;5018003;28;45352;-93
2022/01/12 06:38:11;;;;;;;;;58.00;45.00;;;;;5.35;61.58;103429.50;5036076;28;47479;-93
2022/01/12 06:40:36;;;;;;;;;56.50;43.50;;;;;5.72;61.77;103505.25;5019572;28;45355;-93
2022/01/12 06:43:02;;;;;;;;;56.75;46.25;;;;;5.25;61.81;103424.91;5019573;28;45244;-93
2022/01/12 06:45:28;;;;;;;;;58.00;41.00;;;;;5.41;62.10;103448.16;5036701;28;45452;-94
2022/01/12 06:47:53;;;;;;;;;55.00;45.75;;;;;5.39;62.08;103446.34;5013904;28;47196;-93
2022/01/12 06:50:19;;;;;;;;;55.25;45.50;;;;;5.63;62.08;103483.00;5000781;28;45515;-93
2022/01/12 06:52:44;;;;;;;;;56.25;41.25;;;;;5.48;62.15;103462.41;5000747;28;45675;-92
2022/01/12 06:55:10;;;;;;;;;50.50;37.25;;;;;5.61;62.06;103482.97;5000281;28;45469;-93
2022/01/12 06:57:35;;;;;;;;;54.75;44.75;;;;;5.36;61.64;103446.25;5016395;28;47051;-93
2022/01/12 07:00:00;;;;;;;;;59.25;46.25;;;;;5.83;62.32;103523.09;4999016;28;45428;-93
2022/01/12 07:02:26;;;;;;;;;59.75;46.25;;;;;5.34;61.83;103438.31;5000100;28;45374;-93
2022/01/12 07:04:51;;;;;;;;;57.00;43.00;;;;;5.36;62.17;103423.38;5013038;28;45396;-92
2022/01/12 07:07:16;;;;;;;;;49.50;39.50;;;;;6.06;61.74;103543.06;5017911;28;48087;-93
2022/01/12 07:09:42;;;;;;;;;58.00;42.25;;;;;4.98;61.68;103356.44;5019078;28;45737;-92
2022/01/12 07:12:07;;;;;;;;;54.75;44.00;;;;;5.46;61.79;103427.09;5018331;28;45382;-92
2022/01/12 07:14:33;;;;;;;;;59.00;46.25;;;;;5.79;61.88;103477.16;5019100;28;45429;-92
2022/01/12 07:16:59;;;;;;;;;59.00;45.00;;;;;6.15;61.68;103528.19;5018205;28;46856;-94
2022/01/12 07:19:24;;;;;;;;;60.25;44.25;;;;;5.74;61.60;103446.19;5020570;28;45238;-94
2022/01/12 07:21:49;;;;;;;;;55.25;42.75;;;;;6.20;61.61;103534.47;5017448;28;45319;-92
2022/01/12 07:24:15;;;;;;;;;52.75;41.25;;;;;5.96;61.65;103493.41;5020131;28;45625;-92
2022/01/12 07:26:40;;;;;;;;;62.00;48.75;;;;;5.67;61.81;103450.47;5018713;28;47551;-94
2022/01/12 07:29:06;;;;;;;;;60.75;47.50;;;;;5.59;61.77;103428.25;5018555;28;45220;-92
2022/01/12 07:31:32;;;;;;;;;57.25;44.75;;;;;5.89;61.48;103483.53;5033560;28;45414;-92
2022/01/12 07:33:57;;;;;;;;;62.75;46.25;;;;;5.60;61.64;103428.28;5018310;28;45624;-93
2022/01/12 07:36:23;;;;;;;;;64.25;48.25;;;;;5.71;61.44;103452.28;5017911;28;47522;-92
2022/01/12 07:38:53;;;;;;;;;59.75;46.00;;;;;5.56;61.37;103429.06;5008019;28;45482;-91
2022/01/12 07:41:19;;;;;;;;;64.00;46.75;;;;;6.15;61.90;103520.25;5015471;28;45361;-87
2022/01/12 07:43:44;;;;;;;;;65.75;50.25;;;;;5.92;61.72;103486.22;5017568;28;45468;-90
2022/01/12 07:46:09;;;;;;;;;65.00;49.50;;;;;5.65;61.43;103437.19;5018493;28;45396;-91
2022/01/12 07:48:35;;;;;;;;;61.00;49.25;;;;;5.78;61.24;103470.06;5033250;28;46110;-89
2022/01/12 07:51:00;;;;;;;;;61.00;47.25;;;;;6.23;61.58;103548.69;5015980;28;45523;-89
2022/01/12 07:53:26;;;;;;;;;57.25;45.25;;;;;6.06;61.74;103523.59;5016977;28;45556;-89
2022/01/12 07:55:51;;;;;;;;;56.50;44.50;;;;;6.10;61.37;103531.66;5018204;28;45326;-89
2022/01/12 07:58:17;;;;;;;;;17.75;11.75;;;;;6.25;61.53;103554.91;5018012;28;45202;-91
2022/01/12 08:00:42;;;;;;;;;57.50;46.75;;;;;6.19;61.35;103538.88;5018388;28;45204;-90
2022/01/12 08:03:08;;;;;;;;;60.00;44.50;;;;;6.11;60.75;103536.09;5019264;28;45373;-92
2022/01/12 08:05:33;;;;;;;;;63.75;47.00;;;;;6.47;61.27;103603.88;5017772;28;45363;-90
2022/01/12 08:07:59;;;;;;;;;59.00;46.50;;;;;6.24;61.03;103576.06;5018399;28;45352;-90
2022/01/12 08:10:24;;;;;;;;;55.00;45.25;;;;;6.12;61.00;103550.22;5016428;28;45500;-92
2022/01/12 08:12:50;;;;;;;;;58.25;44.50;;;;;5.84;61.08;103501.09;5017560;28;45471;-90
2022/01/12 08:15:15;;;;;;;;;58.50;44.00;;;;;5.86;60.83;103507.31;5016999;28;48048;-91
2022/01/12 08:17:40;;;;;;;;;60.00;46.50;;;;;5.95;61.06;103523.41;5016823;28;45382;-90
2022/01/12 08:20:11;;;;;;;;;57.50;45.25;;;;;6.04;60.80;103538.56;5017212;28;45380;-91
2022/01/12 08:22:37;;;;;;;;;57.75;45.75;;;;;6.16;60.95;103554.72;5018717;28;45249;-90
2022/01/12 08:25:03;;;;;;;;;51.50;41.00;;;;;5.97;60.68;103534.94;5016960;28;48353;-90
2022/01/12 08:27:29;;;;;;;;;52.75;41.50;;;;;6.52;60.60;103631.34;5017010;28;45432;-91
2022/01/12 08:30:00;;;;;;;;;54.75;44.00;;;;;5.77;60.62;103508.00;5017066;28;45281;-90
2022/01/12 08:32:26;;;;;;;;;56.25;45.25;;;;;6.15;60.80;103567.91;5017800;28;45539;-91
2022/01/12 08:34:51;;;;;;;;;61.75;49.75;;;;;6.17;60.82;103575.03;5016107;28;47197;-90
2022/01/12 08:37:16;;;;;;;;;62.00;47.50;;;;;6.75;60.90;103657.44;5011442;28;45638;-91
2022/01/12 08:39:42;;;;;;;;;54.25;42.00;;;;;6.41;60.73;103597.56;5000005;28;45819;-90
2022/01/12 08:42:07;;;;;;;;;54.50;42.75;;;;;6.16;60.67;103540.56;5013823;28;45523;-90
2022/01/12 08:44:34;;;;;;;;;61.00;49.00;;;;;6.49;61.00;103603.94;5016924;28;48270;-91
2022/01/12 08:47:00;;;;;;;;;60.25;47.25;;;;;6.20;60.84;103556.53;5017099;28;45400;-91
2022/01/12 08:49:25;;;;;;;;;61.75;48.75;;;;;5.93;60.61;103503.91;5016444;28;45481;-91
2022/01/12 08:51:51;;;;;;;;;61.00;47.25;;;;;6.55;60.27;103601.38;5016361;28;45400;-91
2022/01/12 08:54:16;;;;;;;;;63.50;48.00;;;;;6.30;60.43;103562.94;5014285;28;47174;-91
2022/01/12 08:56:41;;;;;;;;;57.50;46.00;;;;;6.42;60.51;103594.06;5014685;28;45529;-91
2022/01/12 08:59:07;;;;;;;;;57.00;45.00;;;;;6.58;60.46;103609.41;5008299;28;45550;-88
2022/01/12 09:01:32;;;;;;;;;72.75;54.50;;;;;6.49;60.31;103598.63;5014213;28;45290;-87
2022/01/12 09:03:57;;;;;;;;;56.25;41.50;;;;;6.29;60.25;103554.06;5016836;28;51165;-88
2022/01/12 09:06:22;;;;;;;;;54.75;42.25;;;;;6.27;60.41;103571.69;5016378;28;45496;-86
2022/01/12 09:08:49;;;;;;;;;58.00;46.25;;;;;6.07;59.99;103541.28;5016731;28;45393;-86
2022/01/12 09:11:18;;;;;;;;;56.00;45.25;;;;;6.76;60.60;103656.56;5017932;28;45525;-86
2022/01/12 09:13:44;;;;;;;;;59.00;45.25;;;;;6.55;60.27;103631.44;5017794;28;46235;-87
2022/01/12 09:16:10;;;;;;;;;50.25;41.50;;;;;6.17;59.93;103574.16;5017628;28;45337;-85
2022/01/12 09:18:39;;;;;;;;;55.25;44.75;;;;;6.32;60.17;103579.72;5017593;28;45502;-88
2022/01/12 09:21:05;;;;;;;;;57.00;44.00;;;;;7.04;59.70;103708.34;5018115;28;45579;-86
2022/01/12 09:23:30;;;;;;;;;62.50;47.50;;;;;6.60;60.07;103646.50;5017484;28;45601;-86
2022/01/12 09:25:56;;;;;;;;;57.25;46.25;;;;;6.60;60.25;103647.41;5004933;28;45521;-86
2022/01/12 09:28:21;;;;;;;;;58.00;45.75;;;;;6.91;59.93;103703.69;5021177;28;45424;-87
2022/01/12 09:30:47;;;;;;;;;57.50;43.00;;;;;6.65;59.91;103661.66;5021715;28;45261;-87
2022/01/12 09:33:12;;;;;;;;;54.00;43.50;;;;;6.76;59.92;103672.44;5020859;28;46240;-86
2022/01/12 09:35:38;;;;;;;;;60.75;47.25;;;;;6.69;59.85;103663.47;5020883;28;45408;-86
2022/01/12 09:38:03;;;;;;;;;54.75;43.50;;;;;7.13;59.71;103745.66;5021117;28;45494;-86
2022/01/12 09:40:29;;;;;;;;;54.00;41.75;;;;;7.04;59.60;103721.59;5019578;28;45775;-86
2022/01/12 09:42:55;;;;;;;;;55.00;42.25;;;;;6.82;59.78;103677.88;5019634;28;47062;-86
2022/01/12 09:45:23;;;;;;;;;52.50;41.25;;;;;6.61;59.41;103651.84;5020173;28;45278;-87
2022/01/12 09:47:50;;;;;;;;;54.50;44.50;;;;;6.76;59.42;103657.44;5020285;28;45404;-86
2022/01/12 09:50:18;;;;;;;;;51.50;42.00;;;;;6.84;59.47;103662.91;5020213;28;45598;-85
2022/01/12 09:52:43;;;;;;;;;54.25;44.00;;;;;7.10;58.93;103704.94;5018924;28;47387;-86
2022/01/12 09:55:09;;;;;;;;;53.75;43.25;;;;;7.29;58.84;103735.34;5020726;28;45507;-85
2022/01/12 09:57:34;;;;;;;;;53.50;41.25;;;;;7.19;58.62;103711.28;5020263;28;45769;-86
2022/01/12 10:00:00;;;;;;;;;54.00;44.50;;;;;7.38;58.54;103743.47;5020585;28;45352;-86
2022/01/12 10:02:25;;;;;;;;;54.00;43.00;;;;;7.31;58.17;103707.06;5019037;28;48283;-85
2022/01/12 10:05:05;;;;;;;;;58.75;47.25;;;;;7.58;58.89;103743.78;5018894;28;45564;-84
2022/01/12 10:07:31;;;;;;;;;54.25;42.25;;;;;7.52;58.37;103719.81;5019945;28;45399;-85
2022/01/12 10:10:05;;;;;;;;;54.50;43.00;;;;;7.47;58.06;103705.56;5018513;28;45212;-85
2022/01/12 10:12:32;;;;;;;;;50.50;38.50;;;;;7.50;57.74;103702.97;5019584;28;45366;-85
2022/01/12 10:15:09;;;;;;;;;61.75;45.50;;;;;7.58;57.38;103710.19;5019314;28;45311;-86
2022/01/12 10:17:44;;;;;;;;;56.25;43.00;;;;;7.95;57.94;103760.34;5019729;28;45316;-85
2022/01/12 10:20:17;;;;;;;;;53.25;43.75;;;;;8.00;57.18;103758.63;5020078;28;45403;-85
2022/01/12 10:22:56;;;;;;;;;57.00;45.50;;;;;7.85;57.04;103724.78;5019696;28;45352;-85
2022/01/12 10:25:21;;;;;;;;;51.00;41.00;;;;;8.04;57.08;103761.38;5016629;28;45273;-85
2022/01/12 10:27:47;;;;;;;;;54.25;44.75;;;;;7.26;57.43;103619.44;5019266;28;45577;-86
2022/01/12 10:30:24;;;;;;;;;53.25;44.75;;;;;7.93;57.41;103712.50;5003696;28;45381;-86
2022/01/12 10:33:09;;;;;;;;;54.25;44.00;;;;;8.23;56.82;103761.66;5017967;28;48639;-85
2022/01/12 10:35:39;;;;;;;;;52.50;42.00;;;;;8.27;56.60;103758.19;5018487;28;45932;-85
2022/01/12 10:38:11;;;;;;;;;50.00;40.25;;;;;8.30;57.01;103763.53;5019605;28;45407;-86
2022/01/12 10:40:54;;;;;;;;;58.00;44.00;;;;;8.35;56.64;103756.50;5020089;28;45415;-84
2022/01/12 10:43:25;;;;;;;;;54.00;43.75;;;;;8.41;56.49;103753.09;5019760;28;46140;-85
2022/01/12 10:45:51;;;;;;;;;50.50;38.75;;;;;7.84;56.09;103648.63;5019916;28;45363;-85
2022/01/12 10:48:16;;;;;;;;;52.75;42.25;;;;;8.24;56.26;103697.91;5018555;28;45415;-84
2022/01/12 10:50:55;;;;;;;;;50.75;42.50;;;;;8.62;55.79;103747.19;5018093;28;45595;-83
2022/01/12 10:53:34;;;;;;;;;56.00;45.00;;;;;8.72;56.01;103753.50;5011109;28;46131;-83
2022/01/12 10:56:05;;;;;;;;;52.25;40.25;;;;;8.64;55.57;103718.84;5019125;28;45434;-84
2022/01/12 10:58:31;;;;;;;;;54.75;42.50;;;;;8.86;54.83;103747.47;5019348;28;45392;-84
2022/01/12 11:00:57;;;;;;;;;57.50;42.50;;;;;8.94;55.08;103746.66;5019174;28;45409;-83
2022/01/12 11:03:23;;;;;;;;;55.00;42.00;;;;;8.84;54.89;103724.38;5019427;28;46066;-84
2022/01/12 11:05:50;;;;;;;;;60.75;46.00;;;;;8.91;55.10;103730.66;5019212;28;45421;-84
2022/01/12 11:08:18;;;;;;;;;52.75;44.25;;;;;8.81;55.15;103705.75;5018505;28;45405;-84
2022/01/12 11:10:45;;;;;;;;;53.50;43.25;;;;;9.04;54.97;103754.78;5019340;28;45595;-84
2022/01/12 11:13:12;;;;;;;;;54.75;42.25;;;;;9.10;55.21;103756.59;5018287;28;46551;-85
2022/01/12 11:15:37;;;;;;;;;60.00;45.50;;;;;8.94;55.48;103739.56;5019062;28;45369;-84
2022/01/12 11:18:03;;;;;;;;;56.25;44.25;;;;;8.98;55.15;103744.03;5019719;28;45404;-84
2022/01/12 11:20:33;;;;;;;;;50.75;42.50;;;;;9.00;54.71;103752.06;5018984;28;45526;-85
2022/01/12 11:23:15;;;;;;;;;57.00;43.50;;;;;8.81;55.24;103725.25;5016171;28;45463;-85
2022/01/12 11:25:50;;;;;;;;;52.25;44.00;;;;;9.02;55.05;103753.84;5005753;28;45410;-86
2022/01/12 11:28:22;;;;;;;;;55.00;43.50;;;;;9.03;54.87;103754.75;5017152;28;45426;-85
2022/01/12 11:30:50;;;;;;;;;58.00;45.50;;;;;9.01;54.39;103752.09;5018920;28;45297;-84
2022/01/12 11:33:18;;;;;;;;;55.25;44.00;;;;;8.92;54.60;103751.97;5018866;28;45543;-86
2022/01/12 11:35:51;;;;;;;;;59.25;45.50;;;;;8.79;54.75;103732.31;5016928;28;46827;-85
2022/01/12 11:38:25;;;;;;;;;58.75;44.25;;;;;8.95;55.34;103749.34;5016976;28;45443;-88
2022/01/12 11:40:54;;;;;;;;;55.25;43.25;;;;;8.95;55.11;103743.13;5016385;28;45518;-86
2022/01/12 11:43:28;;;;;;;;;57.00;44.25;;;;;8.96;55.59;103750.22;5017204;28;46205;-85
2022/01/12 11:46:09;;;;;;;;;57.75;44.75;;;;;8.60;55.26;103685.09;5018110;28;45382;-86
2022/01/12 11:48:47;;;;;;;;;51.50;41.50;;;;;8.95;55.29;103737.81;5017825;28;45463;-85
2022/01/12 11:51:15;;;;;;;;;52.50;42.75;;;;;8.75;54.70;103695.91;5018823;28;45338;-86
2022/01/12 11:53:53;;;;;;;;;58.00;44.25;;;;;8.92;54.85;103724.47;5021678;28;46126;-86
2022/01/12 11:56:22;;;;;;;;;49.75;40.00;;;;;8.90;54.84;103711.16;5020575;28;45358;-87
2022/01/12 11:58:55;;;;;;;;;56.50;42.00;;;;;8.65;54.78;103673.63;5018195;28;45578;-87
2022/01/12 12:01:24;;;;;;;;;53.50;42.25;;;;;8.99;54.98;103726.31;5016600;28;45562;-86
2022/01/12 12:04:01;;;;;;;;;48.75;41.00;;;;;8.86;54.47;103710.22;5015642;28;46080;-86
2022/01/12 12:06:27;;;;;;;;;52.00;40.75;;;;;8.67;54.39;103673.66;5016701;28;45448;-87
2022/01/12 12:09:00;;;;;;;;;57.00;45.00;;;;;8.99;55.27;103723.66;5015266;28;45416;-87
2022/01/12 12:11:30;;;;;;;;;50.25;40.00;;;;;8.71;54.43;103671.91;5015586;28;45325;-87
2022/01/12 12:14:09;;;;;;;;;57.00;41.00;;;;;8.76;55.02;103678.22;5015550;28;46152;-87
2022/01/12 12:16:35;;;;;;;;;50.75;43.00;;;;;9.04;54.75;103727.28;5016561;28;45439;-87
2022/01/12 12:19:05;;;;;;;;;52.00;41.75;;;;;9.00;54.62;103713.03;5017716;28;45378;-87
2022/01/12 12:21:32;;;;;;;;;56.75;46.25;;;;;8.95;54.80;103695.25;5010627;28;45550;-87
2022/01/12 12:24:09;;;;;;;;;52.00;43.00;;;;;8.82;54.71;103670.28;5013441;28;45462;-88
2022/01/12 12:26:42;;;;;;;;;51.00;40.75;;;;;8.71;53.86;103640.00;5007888;28;45849;-88
2022/01/12 12:29:07;;;;;;;;;56.50;46.00;;;;;9.14;53.95;103706.97;5016986;28;45605;-87
2022/01/12 12:31:33;;;;;;;;;58.75;44.75;;;;;8.98;54.12;103672.22;5014126;28;45470;-87
2022/01/12 12:34:06;;;;;;;;;48.00;41.00;;;;;9.13;54.37;103686.53;5003593;28;45881;-90
2022/01/12 12:36:37;;;;;;;;;51.25;43.00;;;;;9.19;53.88;103689.28;5008960;28;45526;-89
2022/01/12 12:39:12;;;;;;;;;61.50;46.25;;;;;8.76;54.87;103606.41;5010439;28;45615;-88
2022/01/12 12:41:45;;;;;;;;;60.75;46.25;;;;;9.06;54.56;103654.59;5012061;28;45568;-88
2022/01/12 12:44:26;;;;;;;;;55.50;45.50;;;;;9.17;54.20;103664.41;5016006;28;45407;-86